createdAt,value
2024-02-29T00:01:52.801Z,5.43
2024-02-29T00:04:25.915Z,5.47
2024-02-29T00:06:56.553Z,5.03
2024-02-29T00:09:27.107Z,5.20
2024-02-29T00:11:57.529Z,5.00
2024-02-29T00:14:28.316Z,5.05
2024-02-29T00:16:59.559Z,5.15
2024-02-29T00:19:33.034Z,5.15
2024-02-29T00:22:03.497Z,5.32
2024-02-29T00:24:34.129Z,5.25
2024-02-29T00:27:04.575Z,4.80
2024-02-29T00:29:35.039Z,4.88
2024-02-29T00:32:05.448Z,4.95
2024-02-29T00:34:38.519Z,5.53
2024-02-29T00:37:09.175Z,5.28
2024-02-29T00:39:39.769Z,4.95
2024-02-29T00:42:10.581Z,5.07
2024-02-29T00:44:41.451Z,5.13
2024-02-29T00:47:11.959Z,4.82
2024-02-29T00:49:45.277Z,4.95
2024-02-29T00:52:15.775Z,5.13
2024-02-29T00:54:46.284Z,5.25
2024-02-29T00:57:16.866Z,4.97
2024-02-29T00:59:47.352Z,5.22
2024-02-29T01:02:17.991Z,5.20
2024-02-29T01:04:51.283Z,5.90
2024-02-29T01:07:22.034Z,5.05
2024-02-29T01:09:52.586Z,4.80
2024-02-29T01:12:23.249Z,5.25
2024-02-29T01:14:53.674Z,4.60
2024-02-29T01:17:25.931Z,4.10
2024-02-29T01:19:58.982Z,5.63
2024-02-29T01:22:29.744Z,5.03
2024-02-29T01:25:00.319Z,5.05
2024-02-29T01:27:30.918Z,4.97
2024-02-29T01:30:01.421Z,4.85
2024-02-29T01:32:35.522Z,4.63
2024-02-29T01:35:11.616Z,5.07
2024-02-29T01:37:42.158Z,4.95
2024-02-29T01:40:13.413Z,4.65
2024-02-29T01:42:45.411Z,5.40
2024-02-29T01:45:18.010Z,4.68
2024-02-29T01:47:48.786Z,5.22
2024-02-29T01:50:21.971Z,5.38
2024-02-29T01:52:52.702Z,4.80
2024-02-29T01:55:23.221Z,5.05
2024-02-29T01:57:53.881Z,4.75
2024-02-29T02:00:24.708Z,4.28
2024-02-29T02:02:55.331Z,5.05
2024-02-29T02:05:28.490Z,5.20
2024-02-29T02:07:59.186Z,5.05
2024-02-29T02:10:29.697Z,4.78
2024-02-29T02:13:00.777Z,4.28
2024-02-29T02:15:31.442Z,4.70
2024-02-29T02:18:01.966Z,4.50
2024-02-29T02:20:35.055Z,5.07
2024-02-29T02:23:05.573Z,4.03
2024-02-29T02:25:36.026Z,4.82
2024-02-29T02:28:06.684Z,4.30
2024-02-29T02:30:37.249Z,4.05
2024-02-29T02:33:07.944Z,4.82
2024-02-29T02:35:40.998Z,4.70
2024-02-29T02:38:11.844Z,4.97
2024-02-29T02:40:42.302Z,4.68
2024-02-29T02:43:13.233Z,4.88
2024-02-29T02:45:43.825Z,4.35
2024-02-29T02:48:14.263Z,4.45
2024-02-29T02:50:47.357Z,4.45
2024-02-29T02:53:18.113Z,4.40
2024-02-29T02:55:48.560Z,5.30
2024-02-29T02:58:19.084Z,4.43
2024-02-29T03:00:49.612Z,4.15
2024-02-29T03:03:20.708Z,4.83
2024-02-29T03:05:53.711Z,4.70
2024-02-29T03:08:27.373Z,4.32
2024-02-29T03:10:57.933Z,4.85
2024-02-29T03:13:28.533Z,4.18
2024-02-29T03:15:59.623Z,4.68
2024-02-29T03:18:30.315Z,4.13
2024-02-29T03:21:03.670Z,4.28
2024-02-29T03:23:34.302Z,4.53
2024-02-29T03:26:05.469Z,4.32
2024-02-29T03:28:36.082Z,4.75
2024-02-29T03:31:06.639Z,4.28
2024-02-29T03:33:37.246Z,4.93
2024-02-29T03:36:10.547Z,4.72
2024-02-29T03:38:41.505Z,4.53
2024-02-29T03:41:11.886Z,4.40
2024-02-29T03:43:43.040Z,3.85
2024-02-29T03:46:13.609Z,4.60
2024-02-29T03:48:44.284Z,4.50
2024-02-29T03:51:18.005Z,4.28
2024-02-29T03:53:48.478Z,4.38
2024-02-29T03:56:18.900Z,4.18
2024-02-29T03:58:49.269Z,4.15
2024-02-29T04:01:20.112Z,4.16
2024-02-29T04:03:50.693Z,4.35
2024-02-29T04:06:23.994Z,4.53
2024-02-29T04:08:54.536Z,4.22
2024-02-29T04:11:25.000Z,4.95
2024-02-29T04:13:55.947Z,4.50
2024-02-29T04:16:26.469Z,4.03
2024-02-29T04:18:56.933Z,4.53
2024-02-29T04:21:30.117Z,4.05
2024-02-29T04:24:00.648Z,4.07
2024-02-29T04:26:31.637Z,4.38
2024-02-29T04:29:02.196Z,3.97
2024-02-29T04:31:32.698Z,4.00
2024-02-29T04:34:03.848Z,3.78
2024-02-29T04:36:38.661Z,4.18
2024-02-29T04:39:10.594Z,4.18
2024-02-29T04:41:40.958Z,4.40
2024-02-29T04:44:12.466Z,4.45
2024-02-29T04:46:42.877Z,3.80
2024-02-29T04:49:13.818Z,4.32
2024-02-29T04:51:47.031Z,3.50
2024-02-29T04:54:17.639Z,3.75
2024-02-29T04:56:48.103Z,4.18
2024-02-29T04:59:18.598Z,4.20
2024-02-29T05:01:49.206Z,3.50
2024-02-29T05:04:19.905Z,3.90
2024-02-29T05:06:55.088Z,4.10
2024-02-29T05:09:25.728Z,3.88
2024-02-29T05:11:56.867Z,4.20
2024-02-29T05:14:28.221Z,4.00
2024-02-29T05:16:59.401Z,4.20
2024-02-29T05:19:29.915Z,4.25
2024-02-29T05:22:03.501Z,4.28
2024-02-29T05:24:34.124Z,3.83
2024-02-29T05:27:04.569Z,4.50
2024-02-29T05:29:35.167Z,3.80
2024-02-29T05:32:05.673Z,4.15
2024-02-29T05:34:36.156Z,3.72
2024-02-29T05:37:09.774Z,4.15
2024-02-29T05:39:40.327Z,4.22
2024-02-29T05:42:10.816Z,3.72
2024-02-29T05:44:41.844Z,3.85
2024-02-29T05:47:12.495Z,3.33
2024-02-29T05:49:43.045Z,4.10
2024-02-29T05:52:16.160Z,3.53
2024-02-29T05:54:46.766Z,4.18
2024-02-29T05:57:17.503Z,3.80
2024-02-29T05:59:47.935Z,4.28
2024-02-29T06:02:18.529Z,3.67
2024-02-29T06:04:49.004Z,3.67
2024-02-29T06:07:22.134Z,3.47
2024-02-29T06:09:53.146Z,3.65
2024-02-29T06:12:23.634Z,4.07
2024-02-29T06:14:54.070Z,4.30
2024-02-29T06:17:24.568Z,4.55
2024-02-29T06:19:55.398Z,4.22
2024-02-29T06:22:28.717Z,4.25
2024-02-29T06:24:59.205Z,4.15
2024-02-29T06:27:31.117Z,4.25
2024-02-29T06:30:01.578Z,3.90
2024-02-29T06:32:32.576Z,4.20
2024-02-29T06:35:03.073Z,4.68
2024-02-29T06:37:36.451Z,4.50
2024-02-29T06:40:12.914Z,4.47
2024-02-29T06:42:43.873Z,4.50
2024-02-29T06:45:14.865Z,4.72
2024-02-29T06:47:45.571Z,4.85
2024-02-29T06:50:16.266Z,4.63
2024-02-29T06:52:51.623Z,4.95
2024-02-29T06:55:23.431Z,4.90
2024-02-29T06:57:53.956Z,4.88
2024-02-29T07:00:26.195Z,5.25
2024-02-29T07:02:57.205Z,5.00
2024-02-29T07:05:28.124Z,4.85
2024-02-29T07:08:02.649Z,5.65
2024-02-29T07:10:33.170Z,5.70
2024-02-29T07:13:04.132Z,5.32
2024-02-29T07:15:35.475Z,5.18
2024-02-29T07:18:06.048Z,5.18
2024-02-29T07:20:36.723Z,5.75
2024-02-29T07:23:09.866Z,5.78
2024-02-29T07:25:40.367Z,4.93
2024-02-29T07:28:11.195Z,5.30
2024-02-29T07:30:42.085Z,5.40
2024-02-29T07:33:12.558Z,5.60
2024-02-29T07:35:43.264Z,4.97
2024-02-29T07:38:16.787Z,5.55
2024-02-29T07:40:47.352Z,4.68
2024-02-29T07:43:17.966Z,5.38
2024-02-29T07:45:49.237Z,5.30
2024-02-29T07:48:20.115Z,5.15
2024-02-29T07:50:52.633Z,4.88
2024-02-29T07:53:26.489Z,5.25
2024-02-29T07:55:57.159Z,4.50
2024-02-29T07:58:27.701Z,4.80
2024-02-29T08:00:58.634Z,6.00
2024-02-29T08:03:29.246Z,5.20
2024-02-29T08:06:00.096Z,4.95
2024-02-29T08:08:33.315Z,4.97
2024-02-29T08:11:04.010Z,5.47
2024-02-29T08:13:34.702Z,5.38
2024-02-29T08:16:05.585Z,5.15
2024-02-29T08:18:37.346Z,5.30
2024-02-29T08:21:08.161Z,5.18
2024-02-29T08:23:41.512Z,5.00
2024-02-29T08:26:12.562Z,5.07
2024-02-29T08:28:44.685Z,4.93
2024-02-29T08:31:15.430Z,5.40
2024-02-29T08:33:46.098Z,5.00
2024-02-29T08:36:17.178Z,5.03
2024-02-29T08:38:51.301Z,4.90
2024-02-29T08:41:22.388Z,5.30
2024-02-29T08:43:52.929Z,4.90
2024-02-29T08:46:24.136Z,5.47
2024-02-29T08:48:54.733Z,4.93
2024-02-29T08:51:25.297Z,4.95
2024-02-29T08:53:58.361Z,5.05
2024-02-29T08:56:29.648Z,5.32
2024-02-29T08:59:00.201Z,5.00
2024-02-29T09:01:30.984Z,5.00
2024-02-29T09:04:01.640Z,4.60
2024-02-29T09:06:40.943Z,5.13
2024-02-29T09:09:14.992Z,4.82
2024-02-29T09:11:45.705Z,4.78
2024-02-29T09:14:16.232Z,4.72
2024-02-29T09:16:47.332Z,4.18
2024-02-29T09:19:17.909Z,5.13
2024-02-29T09:21:48.500Z,5.15
2024-02-29T09:24:22.577Z,6.00
2024-02-29T09:26:53.178Z,5.55
2024-02-29T09:29:26.615Z,4.82
2024-02-29T09:31:57.498Z,4.30
2024-02-29T09:34:28.138Z,4.43
2024-02-29T09:36:58.809Z,4.65
2024-02-29T09:39:31.925Z,5.03
2024-02-29T09:42:12.683Z,4.90
2024-02-29T09:44:46.088Z,5.18
2024-02-29T09:47:20.415Z,4.47
2024-02-29T09:49:56.884Z,4.80
2024-02-29T09:52:33.093Z,4.60
2024-02-29T09:55:07.108Z,4.72
2024-02-29T09:57:38.104Z,4.53
2024-02-29T10:00:11.729Z,4.00
2024-02-29T10:02:43.837Z,4.15
2024-02-29T10:05:14.724Z,4.30
2024-02-29T10:07:47.005Z,4.78
2024-02-29T10:10:21.496Z,4.32
2024-02-29T10:12:58.064Z,4.82
2024-02-29T10:15:39.045Z,4.53
2024-02-29T10:18:10.007Z,3.85
2024-02-29T10:20:40.730Z,4.55
2024-02-29T10:23:14.766Z,3.95
2024-02-29T10:25:48.135Z,4.13
2024-02-29T10:28:18.810Z,4.10
2024-02-29T10:30:55.886Z,4.43
2024-02-29T10:33:26.686Z,4.15
2024-02-29T10:35:57.345Z,4.20
2024-02-29T10:38:28.219Z,4.03
2024-02-29T10:41:04.390Z,3.75
2024-02-29T10:43:35.380Z,3.70
2024-02-29T10:46:08.835Z,4.13
2024-02-29T10:48:46.713Z,4.40
2024-02-29T10:53:59.110Z,4.20
2024-02-29T10:56:33.041Z,3.83
2024-02-29T10:59:08.970Z,3.92
2024-02-29T11:01:40.267Z,4.10
2024-02-29T11:04:11.115Z,4.00
2024-02-29T11:06:44.219Z,3.92
2024-02-29T11:09:15.520Z,4.18
2024-02-29T11:11:51.357Z,3.85
2024-02-29T11:14:21.790Z,3.90
2024-02-29T11:16:52.365Z,3.80
2024-02-29T11:19:23.928Z,3.85
2024-02-29T11:21:54.954Z,4.07
2024-02-29T11:24:25.557Z,3.60
2024-02-29T11:27:01.512Z,4.03
2024-02-29T11:29:32.128Z,3.65
2024-02-29T11:32:02.718Z,4.00
2024-02-29T11:34:33.505Z,3.70
2024-02-29T11:37:04.096Z,3.83
2024-02-29T11:39:34.700Z,3.72
2024-02-29T11:42:08.804Z,3.50
2024-02-29T11:44:39.504Z,3.65
2024-02-29T11:47:10.053Z,3.60
2024-02-29T11:49:40.831Z,3.80
2024-02-29T11:52:11.360Z,3.65
2024-02-29T11:54:42.751Z,3.85
2024-02-29T11:57:16.095Z,4.05
2024-02-29T11:59:46.663Z,3.20
2024-02-29T12:02:19.713Z,3.63
2024-02-29T12:04:50.454Z,4.07
2024-02-29T12:07:21.331Z,3.83
2024-02-29T12:09:52.313Z,4.05
2024-02-29T12:12:25.925Z,3.97
2024-02-29T12:14:56.577Z,3.58
2024-02-29T12:17:28.693Z,3.65
2024-02-29T12:20:00.083Z,3.50
2024-02-29T12:22:30.712Z,3.55
2024-02-29T12:25:01.538Z,3.63
2024-02-29T12:27:35.316Z,3.90
2024-02-29T12:30:05.897Z,3.78
2024-02-29T12:32:37.994Z,3.35
2024-02-29T12:35:12.472Z,3.58
2024-02-29T12:37:43.562Z,3.53
2024-02-29T12:40:16.246Z,3.70
2024-02-29T12:42:50.871Z,3.67
2024-02-29T12:45:21.714Z,4.10
2024-02-29T12:47:52.346Z,3.28
2024-02-29T12:50:23.125Z,3.25
2024-02-29T12:52:55.665Z,3.22
2024-02-29T12:55:26.574Z,3.22
2024-02-29T12:58:00.098Z,3.60
2024-02-29T13:00:30.788Z,3.58
2024-02-29T13:03:01.656Z,3.60
2024-02-29T13:05:32.269Z,3.88
2024-02-29T13:08:04.424Z,3.20
2024-02-29T13:10:35.024Z,3.63
2024-02-29T13:13:10.657Z,3.47
2024-02-29T13:15:42.032Z,3.90
2024-02-29T13:18:12.607Z,3.47
2024-02-29T13:20:43.658Z,3.28
2024-02-29T13:23:14.152Z,3.17
2024-02-29T13:25:45.011Z,3.60
2024-02-29T13:28:18.271Z,3.25
2024-02-29T13:30:50.020Z,3.25
2024-02-29T13:33:20.689Z,3.72
2024-02-29T13:35:51.600Z,3.65
2024-02-29T13:38:22.295Z,4.43
2024-02-29T13:40:52.776Z,3.72
2024-02-29T13:43:25.956Z,3.97
2024-02-29T13:45:56.759Z,4.05
2024-02-29T13:48:27.271Z,3.78
2024-02-29T13:50:57.804Z,4.53
2024-02-29T13:53:28.292Z,4.50
2024-02-29T13:55:58.775Z,4.40
2024-02-29T13:58:31.900Z,4.40
2024-02-29T14:01:02.490Z,4.97
2024-02-29T14:03:32.991Z,4.60
2024-02-29T14:06:03.485Z,4.25
2024-02-29T14:08:34.205Z,4.60
2024-02-29T14:11:05.699Z,4.65
2024-02-29T14:13:41.273Z,4.60
2024-02-29T14:16:11.868Z,4.43
2024-02-29T14:18:42.610Z,4.18
2024-02-29T14:21:16.511Z,4.55
2024-02-29T14:23:47.276Z,5.20
2024-02-29T14:26:18.336Z,4.38
2024-02-29T14:28:52.422Z,3.67
2024-02-29T14:31:25.398Z,4.65
2024-02-29T14:33:56.284Z,4.30
2024-02-29T14:36:26.885Z,4.72
2024-02-29T14:38:57.500Z,4.25
2024-02-29T14:41:31.067Z,4.65
2024-02-29T14:44:05.259Z,4.00
2024-02-29T14:46:35.913Z,4.60
2024-02-29T14:49:06.653Z,4.18
2024-02-29T14:51:37.150Z,3.88
2024-02-29T14:54:09.155Z,4.28
2024-02-29T14:56:40.249Z,5.03
2024-02-29T14:59:13.440Z,3.70
2024-02-29T15:01:44.386Z,4.68
2024-02-29T15:04:15.179Z,4.18
2024-02-29T15:06:46.410Z,4.82
2024-02-29T15:09:18.436Z,3.80
2024-02-29T15:11:49.045Z,4.10
2024-02-29T15:14:22.434Z,4.13
2024-02-29T15:16:52.932Z,4.10
2024-02-29T15:19:23.413Z,4.20
2024-02-29T15:21:54.379Z,4.53
2024-02-29T15:24:25.760Z,4.63
2024-02-29T15:27:00.615Z,4.45
2024-02-29T15:29:33.849Z,5.05
2024-02-29T15:32:04.848Z,4.60
2024-02-29T15:34:35.368Z,4.70
2024-02-29T15:37:06.106Z,5.05
2024-02-29T15:39:37.028Z,5.25
2024-02-29T15:42:08.368Z,5.45
2024-02-29T15:44:41.654Z,5.63
2024-02-29T15:47:12.447Z,4.20
2024-02-29T15:49:44.903Z,5.38
2024-02-29T15:52:16.179Z,5.72
2024-02-29T15:54:47.276Z,5.20
2024-02-29T15:57:17.795Z,4.93
2024-02-29T15:59:51.016Z,5.40
2024-02-29T16:02:21.617Z,4.97
2024-02-29T16:04:52.904Z,5.97
2024-02-29T16:07:23.805Z,5.15
2024-02-29T16:09:54.424Z,5.47
2024-02-29T16:12:24.974Z,4.82
2024-02-29T16:14:58.159Z,5.85
2024-02-29T16:17:28.773Z,5.80
2024-02-29T16:20:00.180Z,5.72
2024-02-29T16:22:31.398Z,5.35
2024-02-29T16:25:01.949Z,5.70
2024-02-29T16:27:32.457Z,5.35
2024-02-29T16:30:05.612Z,5.40
2024-02-29T16:32:36.108Z,5.60
2024-02-29T16:35:07.961Z,5.53
2024-02-29T16:37:38.591Z,6.10
2024-02-29T16:40:09.921Z,5.90
2024-02-29T16:42:40.454Z,6.38
2024-02-29T16:45:13.988Z,6.22
2024-02-29T16:47:44.519Z,6.47
2024-02-29T16:50:16.937Z,6.45
2024-02-29T16:52:47.569Z,6.72
2024-02-29T16:55:18.176Z,6.65
2024-02-29T16:57:49.570Z,6.57
2024-02-29T17:00:24.355Z,6.32
2024-02-29T17:02:54.939Z,6.53
2024-02-29T17:05:25.413Z,6.93
2024-02-29T17:07:55.944Z,6.45
2024-02-29T17:10:26.593Z,6.25
2024-02-29T17:12:59.564Z,5.78
2024-02-29T17:15:34.734Z,6.55
2024-02-29T17:18:06.556Z,6.05
2024-02-29T17:20:36.988Z,6.40
2024-02-29T17:23:08.637Z,6.38
2024-02-29T17:25:39.454Z,7.22
2024-02-29T17:28:10.198Z,6.25
2024-02-29T17:30:44.349Z,6.20
2024-02-29T17:33:14.968Z,7.30
2024-02-29T17:35:45.821Z,6.78
2024-02-29T17:38:16.311Z,7.18
2024-02-29T17:40:47.067Z,6.70
2024-02-29T17:43:18.457Z,6.45
2024-02-29T17:45:52.826Z,6.13
2024-02-29T17:48:23.300Z,6.47
2024-02-29T17:50:54.546Z,6.57
2024-02-29T17:53:25.074Z,7.07
2024-02-29T17:55:55.756Z,6.40
2024-02-29T17:58:26.417Z,6.50
2024-02-29T18:01:00.807Z,6.85
2024-02-29T18:03:31.306Z,6.78
2024-02-29T18:06:02.145Z,6.63
2024-02-29T18:08:32.696Z,6.35
2024-02-29T18:11:03.271Z,6.38
2024-02-29T18:13:33.827Z,6.95
2024-02-29T18:16:07.162Z,6.50
2024-02-29T18:18:37.734Z,6.43
2024-02-29T18:21:08.473Z,6.85
2024-02-29T18:23:40.300Z,6.78
2024-02-29T18:26:13.079Z,6.20
2024-02-29T18:28:43.630Z,6.18
2024-02-29T18:31:17.021Z,6.13
2024-02-29T18:33:51.057Z,6.80
2024-02-29T18:36:22.789Z,6.82
2024-02-29T18:38:54.414Z,6.15
2024-02-29T18:41:27.138Z,7.05
2024-02-29T18:43:59.807Z,5.95
2024-02-29T18:46:41.291Z,6.15
2024-02-29T18:49:14.993Z,6.43
2024-02-29T18:51:48.438Z,6.18
2024-02-29T18:54:20.124Z,6.22
2024-02-29T18:56:51.673Z,6.03
2024-02-29T18:59:22.399Z,6.43
2024-02-29T19:02:00.018Z,5.90
2024-02-29T19:04:32.020Z,6.03
2024-02-29T19:07:04.738Z,6.63
2024-02-29T19:09:35.994Z,6.07
2024-02-29T19:12:09.039Z,6.32
2024-02-29T19:14:39.875Z,5.60
2024-02-29T19:17:14.153Z,6.25
2024-02-29T19:19:44.677Z,6.25
2024-02-29T19:22:16.386Z,5.97
2024-02-29T19:24:47.417Z,6.13
2024-02-29T19:27:20.093Z,5.60
2024-02-29T19:29:53.367Z,6.15
2024-02-29T19:32:28.931Z,6.30
2024-02-29T19:35:00.515Z,6.22
2024-02-29T19:37:32.587Z,5.85
2024-02-29T19:40:03.292Z,5.78
2024-02-29T19:42:36.098Z,6.63
2024-02-29T19:45:07.122Z,6.60
2024-02-29T19:47:43.397Z,6.90
2024-02-29T19:50:14.323Z,7.05
2024-02-29T19:52:45.434Z,7.35
2024-02-29T19:55:16.168Z,7.45
2024-02-29T19:57:47.292Z,6.97
2024-02-29T20:00:19.511Z,7.63
2024-02-29T20:02:52.716Z,7.65
2024-02-29T20:05:23.802Z,8.25
2024-02-29T20:07:54.603Z,8.55
2024-02-29T20:10:25.423Z,8.13
2024-02-29T20:12:56.106Z,8.35
2024-02-29T20:15:28.488Z,8.43
2024-02-29T20:18:01.569Z,8.68
2024-02-29T20:20:32.145Z,9.30
2024-02-29T20:23:02.599Z,8.15
2024-02-29T20:25:33.755Z,8.43
2024-02-29T20:28:04.693Z,8.60
2024-02-29T20:30:35.244Z,8.25
2024-02-29T20:33:08.820Z,8.43
2024-02-29T20:35:39.455Z,7.95
2024-02-29T20:38:13.761Z,8.23
2024-02-29T20:40:44.453Z,8.13
2024-02-29T20:43:15.002Z,7.63
2024-02-29T20:45:46.259Z,8.43
2024-02-29T20:48:20.554Z,7.93
2024-02-29T20:50:51.726Z,8.20
2024-02-29T20:53:26.503Z,7.78
2024-02-29T20:55:57.113Z,8.00
2024-02-29T20:58:28.927Z,7.72
2024-02-29T21:01:00.316Z,7.68
2024-02-29T21:03:36.810Z,7.88
2024-02-29T21:06:07.728Z,7.55
2024-02-29T21:08:40.424Z,7.45
2024-02-29T21:11:11.405Z,7.45
2024-02-29T21:13:42.281Z,7.30
2024-02-29T21:16:13.068Z,7.55
2024-02-29T21:18:46.656Z,7.20
2024-02-29T21:21:19.828Z,7.35
2024-02-29T21:23:51.101Z,7.30
2024-02-29T21:26:22.249Z,7.80
2024-02-29T21:28:56.130Z,7.00
2024-02-29T21:31:26.887Z,7.30
2024-02-29T21:34:00.006Z,6.78
2024-02-29T21:36:30.802Z,6.50
2024-02-29T21:39:01.263Z,7.18
2024-02-29T21:41:33.674Z,7.10
2024-02-29T21:44:04.848Z,6.75
2024-02-29T21:46:35.667Z,6.47
2024-02-29T21:49:10.056Z,7.90
2024-02-29T21:51:40.625Z,6.40
2024-02-29T21:54:11.238Z,6.65
2024-02-29T21:56:41.771Z,6.82
2024-02-29T21:59:12.520Z,6.80
2024-02-29T22:01:43.036Z,6.45
2024-02-29T22:04:16.446Z,6.43
2024-02-29T22:06:47.183Z,6.25
2024-02-29T22:09:18.084Z,6.43
2024-02-29T22:11:49.509Z,6.60
2024-02-29T22:14:20.362Z,6.47
2024-02-29T22:16:51.144Z,6.82
2024-02-29T22:19:24.611Z,7.00
2024-02-29T22:21:55.198Z,6.43
2024-02-29T22:24:25.838Z,7.05
2024-02-29T22:26:56.565Z,6.35
2024-02-29T22:29:27.395Z,6.10
2024-02-29T22:31:57.850Z,6.55
2024-02-29T22:34:31.301Z,5.65
2024-02-29T22:37:04.408Z,6.13
2024-02-29T22:39:34.924Z,5.82
2024-02-29T22:42:05.597Z,6.53
2024-02-29T22:44:37.156Z,6.40
2024-02-29T22:47:08.430Z,6.25
2024-02-29T22:49:41.611Z,6.18
2024-02-29T22:52:12.283Z,5.95
2024-02-29T22:54:42.807Z,5.80
2024-02-29T22:57:13.567Z,5.35
2024-02-29T22:59:44.242Z,5.72
2024-02-29T23:02:14.912Z,5.78
2024-02-29T23:04:48.135Z,6.18
2024-02-29T23:07:19.135Z,5.82
2024-02-29T23:09:50.027Z,5.72
2024-02-29T23:12:20.709Z,5.45
2024-02-29T23:14:51.317Z,5.82
2024-02-29T23:17:22.153Z,5.72
2024-02-29T23:19:56.360Z,5.70
2024-02-29T23:22:27.114Z,5.78
2024-02-29T23:24:57.823Z,5.82
2024-02-29T23:27:28.286Z,5.53
2024-02-29T23:29:58.955Z,5.55
2024-02-29T23:32:29.434Z,5.65
2024-02-29T23:35:02.782Z,6.03
2024-02-29T23:37:33.391Z,5.60
2024-02-29T23:40:04.431Z,5.22
2024-02-29T23:42:34.909Z,6.05
2024-02-29T23:45:05.609Z,5.50
2024-02-29T23:47:36.333Z,5.18
2024-02-29T23:50:10.120Z,5.97
2024-02-29T23:52:41.008Z,5.70
2024-02-29T23:55:11.754Z,5.38
2024-02-29T23:57:42.296Z,5.82
